Portada
METAR-TAF:

METAR-TAF

Aeroports :

Aeroport d'Alacant-Elx

Alacant, Espanya

latitud: 38-17N, longitud: 000-33W, altitud: 43 m

Observació

L'informe es va fer fa 22 minuts, a les 00:00 UTC
Vent 8 kt del Oest/Nord-Oest, variant entre Oest i Nord-Oest
Temperatura 13°C
Humitat 58%
Pressió 1032 hPa
Visibilitat 10 km o més
sense núvols per sota de 1500 mi sense presència de cumulonimbus.

METAR: LEAL 180000Z 29008KT 260V320 CAVOK 13/05 Q1032 NOSIG

Hora: 01:22 (00:22 UTC)

Pronòstic

L'informe es va fer fa 1 hora i 22 minuts, a les 23:00 UTC
Pronòstic vàlid del 18 a les 00 UTC al 18 a les 24 UTC
Vent 5 kt del Oest/Nord-Oest
Visibilitat 10 km o més
Escasses núvols a una alçada de 4000 ft
Evolucionant progressivament
l' 18 a les 11 UTC al 18 a les 14 UTC
Vent 7 kt del Sud-Oest
Probabilitat 30% :
Temporalment
l' 18 a les 09 UTC al 18 a les 13 UTC
pluja

TAF: LEAL 172300Z 1800/1824 29005KT 9999 FEW040 TX14/1813Z TN05/1806Z BECMG 1811/1814 23007KT PROB30 TEMPO 1809/1813 RA

Observacions i pronòstics meteorològics de més de 4000 aeroports (METAR i TAF).

Les estacions disponibles són els punts grocs i vermells al mapa.

Posi el ratolí al punt desitjat per veure el nom de l'estació.

Feu clic per veure les observacions i els pronòstics meteorològics.

Per canviar el mapa: feu clic els botons verds amb una creu de color negre per apropar; al botó verd amb un guió per allunyar la imatge; o en les fletxes verdes per a mapes adjacents.


METAR-TAF: